Main page
METAR-TAF:

METAR-TAF

Airports :

Isle of Man,

Isle of Man Airport

latitude: 54-05N, longitude: 004-38W, elevation: 17 m

Current weather observation

The report was made 22 minutes ago, at 06:50 UTC
Wind 16 kt from the West, varying between Southwest and West/Northwest
Temperature 14°C
Humidity 77%
Pressure 1011 hPa
Visibility 10 km or more
Few clouds at a height of 1500 ft

METAR: EGNS 190650Z 26016KT 230V300 9999 FEW015 14/10 Q1011 NOSIG

Time: 08:12 (07:12 UTC)

Forecast

The report was made 2 hours and 12 minutes ago, at 05:00 UTC
Forecast valid from 19 at 06 UTC to 19 at 15 UTC
Wind 20 kt from the West
Visibility 10 km or more
Few clouds at a height of 1400 ft
Scattered clouds at a height of 2000 ft
Broken clouds at a height of 4000 ft

TAF: EGNS 190500Z 1906/1915 26020KT 9999 FEW014 SCT020 BKN040

Weather observations and forecasts of more than 4000 airports (METAR and TAF reports).

The available stations are represented by yellow and red dots on the map.

Hover mouse over dot to see the name of the station.

Then click to see weather observations and forecasts.

To change the map : click on the green buttons with a black cross to zoom in, on the green button with a dash to zoom out, or on the green arrows for adjacent maps.


METAR-TAF: